Jackson, MI (49201)

1:45 PM EST on December 08, 2016 (GMT -0500)
Weather Davis | | Change Station

Elev 1008 ft 42.24 °N, 84.25 °W | Updated 18 seconds ago

Snow
Snow
23.5 °F
Feels Like 13 °F
N
10.7
Wind Variable Wind from West
Gusts 17.4 mph

Today
High -- | Low -- °F
--% Chance of Precip.
Yesterday
High -- | Low -- °F
Precip. -- in
Pressure 30.10 in
Visibility 1.5 miles
Clouds Scattered Clouds 1800 ft
Mostly Cloudy 2300 ft
Overcast 2900 ft
Windchill 13 °F
Dew Point 15 °F
Humidity 69%
Rainfall 0.00 in
Snow Depth Not available.
7:53 AM 5:04 PM
Waxing Gibbous, 65% visible
SPECI KJXN 081817Z 27016G23KT 1 1/2SM -SN SCT018 BKN023 OVC029 M04/M08 A3010 RMK AO2 P0000 T10391078
Pressure 30.10 in
Visibility 1.5 miles
Clouds Scattered Clouds 1800 ft
Mostly Cloudy 2300 ft
Overcast 2900 ft
Windchill 13 °F
Dew Point 15 °F
Humidity 69%
Rainfall 0.00 in
Snow Depth Not available.
7:53 AM 5:04 PM
Waxing Gibbous, 65% visible
SPECI KJXN 081817Z 27016G23KT 1 1/2SM -SN SCT018 BKN023 OVC029 M04/M08 A3010 RMK AO2 P0000 T10391078

10-Day Weather Forecast

Almanac

Astronomy

Dec. 08, 2016 Rise Set
Actual Time
Civil Twilight
Nautical Twilight
Astronomical Twilight
Moon
Length of Visible Light
Length of Day
Tomorrow will be .
, % of the Moon is Illuminated

Today's Extremes

State Highs State Lows

Community

WunderPhotos

Upload Photos

1,956,277 photos uploaded!

WunderBlog® & News

Nearby

Air Quality

  Air Quality AQ Index Pollutant
Not available.

Snow Depth

Station Depth Elevation

Earthquake Activity

City Distance Mag. Time & Date
Minimum magnitude displayed is 2.5.

Coastal Water Temperatures

Place Temperature

Stations

Nearby Weather Stations

Station Location Temp. Windchill Dew Point Humidity Wind Precip. Elev Updated Type
                   

Watches & Warnings

There are currently no watches in effect.